Avalon Airport
YMAV : rendu visible

Aérodrome :











RETROUVEZ-NOUS SUR...

 
LOGIN :

S'inscrire | Disclaimer

   EN    FR    IT 

 









Légende :    VFR   VFR Marginal   IFR   IFR Intensif   IFR Très Intensif
Visi : 
Plafond : 
>= 8 km
>= 3000ft
5 à 8 km
1000 à 3000 ft
1500m à 5 km
500 à 1000 ft
800 à 1500m
200 à 500 ft
< 800m
< 200 ft
Symboles :   Orages  Brouillard  Fortes neiges  Fortes précipitations  Vent > 20 kt






- Altitude de l'aérodrome : 35 ft
- Code IATA : AVV


YMAV - Avalon

DERNIER METAR :
  • 280600Z AUTO 16008KT 9999 // OVC047 19/13 Q1014

METARs EXPIRÉS :
  • 280530Z AUTO 17007KT 9999 // BKN037 OVC045 18/14 Q1014
  • 280500Z AUTO 16009KT 9999 // OVC041 19/14 Q1015
  • 280430Z AUTO 17009KT 9999 // BKN039 OVC046 18/13 Q1015
  • 280400Z AUTO 19004KT 130V250 9999 // BKN039 OVC049 19/12 Q1015
  • 280330Z AUTO 19009KT 9999 // BKN035 OVC040 19/13 Q1015
  • 280300Z AUTO 25008KT 9999 // BKN047 20/14 Q1015 RF00.0/000.0

TAF AMD TAF YMAV
Valide du 28 à 06h jusqu'au 29 à 06h UTC


280450Z 2806/2906 18012KT 9999 BKN035
BECMG 2811/2813 16010KT 9999 -SHRA SCT015 BKN020
FM290000 19007KT 9999 SCT030



MET'MAP, la Météo Aéronautique d'un coup d'oeil ! - Copyright ORBIFLY Décembre 2007 - Disclaimer

ORBIFLY MET'MAP TEAM :

Programmation & Développement : Alexandra Zaïnal
Sur une idée originale de : Baudouin d'Aumeries
Assistance à la programmation : Marc-Olivier Méhu
Soutien technique & logistique : Manuel Goepfert

Contact : metmap@orbifly.com




SOURCES & CREDITS :

   NOAA       Earth
Advisory